Terminal Aerodrome Forecast
Issued by NWS Cleveland, OH

Home | Current Version | Previous Version | Text Only | Print | Product List | Glossary On
Versions: 1 2 3 4 5 6 7 8 9 10 11 12 13
511
FTUS41 KCLE 281126
TAFCAK
TAF
KCAK 281126Z 2812/2912 15008KT P6SM OVC090
     FM281700 13008KT P6SM SCT035 OVC050
     FM282100 08008KT P6SM VCSH SCT025 OVC035
      TEMPO 2823/2903 5SM -RA SCT015 OVC025
     FM290500 07006KT P6SM SCT025 OVC035=

USA.gov is the U.S. government's official web portal to all federal, state and local government web resources and services.